sensor_id;sensor_type;location;lat;lon;timestamp;pressure;altitude;pressure_sealevel;temperature
69590;BMP180;56792;50.644;17.984;2023-12-04T00:01:31;100263.40;;;-6.58
69590;BMP180;56792;50.644;17.984;2023-12-04T00:04:02;100263.80;;;-6.54
69590;BMP180;56792;50.644;17.984;2023-12-04T00:06:33;100260.00;;;-6.62
69590;BMP180;56792;50.644;17.984;2023-12-04T00:09:04;100253.60;;;-6.70
69590;BMP180;56792;50.644;17.984;2023-12-04T00:11:35;100261.20;;;-6.80
69590;BMP180;56792;50.644;17.984;2023-12-04T00:14:06;100257.40;;;-6.90
69590;BMP180;56792;50.644;17.984;2023-12-04T00:16:37;100260.60;;;-6.90
69590;BMP180;56792;50.644;17.984;2023-12-04T00:19:10;100255.20;;;-7.10
69590;BMP180;56792;50.644;17.984;2023-12-04T00:21:41;100255.80;;;-7.10
69590;BMP180;56792;50.644;17.984;2023-12-04T00:24:12;100257.60;;;-7.18
69590;BMP180;56792;50.644;17.984;2023-12-04T00:26:43;100262.00;;;-7.28
69590;BMP180;56792;50.644;17.984;2023-12-04T00:29:14;100260.00;;;-7.28
69590;BMP180;56792;50.644;17.984;2023-12-04T00:31:45;100258.00;;;-7.30
69590;BMP180;56792;50.644;17.984;2023-12-04T00:34:16;100254.80;;;-7.40
69590;BMP180;56792;50.644;17.984;2023-12-04T00:36:47;100258.20;;;-7.56
69590;BMP180;56792;50.644;17.984;2023-12-04T00:39:18;100257.20;;;-7.70
69590;BMP180;56792;50.644;17.984;2023-12-04T00:41:49;100260.80;;;-7.70
69590;BMP180;56792;50.644;17.984;2023-12-04T00:44:20;100253.80;;;-7.70
69590;BMP180;56792;50.644;17.984;2023-12-04T00:46:51;100254.40;;;-7.70
69590;BMP180;56792;50.644;17.984;2023-12-04T00:49:22;100256.00;;;-7.68
69590;BMP180;56792;50.644;17.984;2023-12-04T00:51:53;100267.40;;;-7.60
69590;BMP180;56792;50.644;17.984;2023-12-04T00:54:24;100260.80;;;-7.60
69590;BMP180;56792;50.644;17.984;2023-12-04T00:56:55;100268.60;;;-7.60
69590;BMP180;56792;50.644;17.984;2023-12-04T00:59:26;100270.20;;;-7.70
69590;BMP180;56792;50.644;17.984;2023-12-04T01:01:57;100273.80;;;-7.78
69590;BMP180;56792;50.644;17.984;2023-12-04T01:04:28;100273.20;;;-7.80
69590;BMP180;56792;50.644;17.984;2023-12-04T01:06:59;100279.80;;;-7.80
69590;BMP180;56792;50.644;17.984;2023-12-04T01:09:30;100285.00;;;-7.80
69590;BMP180;56792;50.644;17.984;2023-12-04T01:12:02;100277.00;;;-7.80
69590;BMP180;56792;50.644;17.984;2023-12-04T01:14:33;100277.40;;;-7.90
69590;BMP180;56792;50.644;17.984;2023-12-04T01:17:04;100277.20;;;-7.90
69590;BMP180;56792;50.644;17.984;2023-12-04T01:19:36;100282.20;;;-7.90
69590;BMP180;56792;50.644;17.984;2023-12-04T01:22:08;100284.80;;;-7.90
69590;BMP180;56792;50.644;17.984;2023-12-04T01:24:39;100284.40;;;-7.90
69590;BMP180;56792;50.644;17.984;2023-12-04T01:27:10;100287.80;;;-7.98
69590;BMP180;56792;50.644;17.984;2023-12-04T01:29:41;100283.40;;;-8.00
69590;BMP180;56792;50.644;17.984;2023-12-04T01:32:12;100282.20;;;-8.00
69590;BMP180;56792;50.644;17.984;2023-12-04T01:34:43;100282.20;;;-8.04
69590;BMP180;56792;50.644;17.984;2023-12-04T01:37:15;100282.80;;;-8.06
69590;BMP180;56792;50.644;17.984;2023-12-04T01:39:46;100279.00;;;-8.10
69590;BMP180;56792;50.644;17.984;2023-12-04T01:42:17;100272.00;;;-8.20
69590;BMP180;56792;50.644;17.984;2023-12-04T01:44:48;100270.60;;;-8.24
69590;BMP180;56792;50.644;17.984;2023-12-04T01:47:19;100278.20;;;-8.20
69590;BMP180;56792;50.644;17.984;2023-12-04T01:49:51;100278.40;;;-8.22
69590;BMP180;56792;50.644;17.984;2023-12-04T01:52:23;100283.80;;;-8.20
69590;BMP180;56792;50.644;17.984;2023-12-04T01:54:54;100282.40;;;-8.28
69590;BMP180;56792;50.644;17.984;2023-12-04T01:57:25;100277.80;;;-8.30
69590;BMP180;56792;50.644;17.984;2023-12-04T01:59:56;100284.40;;;-8.32
69590;BMP180;56792;50.644;17.984;2023-12-04T02:02:28;100286.20;;;-8.40
69590;BMP180;56792;50.644;17.984;2023-12-04T02:05:00;100283.80;;;-8.40
69590;BMP180;56792;50.644;17.984;2023-12-04T02:07:32;100282.00;;;-8.60
69590;BMP180;56792;50.644;17.984;2023-12-04T02:10:04;100279.20;;;-8.58
69590;BMP180;56792;50.644;17.984;2023-12-04T02:12:36;100276.80;;;-8.60
69590;BMP180;56792;50.644;17.984;2023-12-04T02:15:09;100281.00;;;-8.60
69590;BMP180;56792;50.644;17.984;2023-12-04T02:17:42;100273.00;;;-8.70
69590;BMP180;56792;50.644;17.984;2023-12-04T02:20:16;100269.80;;;-8.70
69590;BMP180;56792;50.644;17.984;2023-12-04T02:22:47;100272.00;;;-8.80
69590;BMP180;56792;50.644;17.984;2023-12-04T02:25:18;100270.00;;;-8.80
69590;BMP180;56792;50.644;17.984;2023-12-04T02:27:53;100270.40;;;-8.80
69590;BMP180;56792;50.644;17.984;2023-12-04T02:30:28;100274.00;;;-8.90
69590;BMP180;56792;50.644;17.984;2023-12-04T02:33:03;100272.20;;;-9.00
69590;BMP180;56792;50.644;17.984;2023-12-04T02:35:37;100267.60;;;-9.00
69590;BMP180;56792;50.644;17.984;2023-12-04T02:38:10;100268.20;;;-9.06
69590;BMP180;56792;50.644;17.984;2023-12-04T02:40:43;100263.20;;;-9.10
69590;BMP180;56792;50.644;17.984;2023-12-04T02:43:14;100263.40;;;-9.18
69590;BMP180;56792;50.644;17.984;2023-12-04T02:45:45;100266.60;;;-9.20
69590;BMP180;56792;50.644;17.984;2023-12-04T02:48:16;100262.40;;;-9.30
69590;BMP180;56792;50.644;17.984;2023-12-04T02:50:47;100264.00;;;-9.40
69590;BMP180;56792;50.644;17.984;2023-12-04T02:53:18;100265.40;;;-9.40
69590;BMP180;56792;50.644;17.984;2023-12-04T02:55:49;100268.40;;;-9.50
69590;BMP180;56792;50.644;17.984;2023-12-04T02:58:20;100264.40;;;-9.54
69590;BMP180;56792;50.644;17.984;2023-12-04T03:00:51;100265.60;;;-9.60
69590;BMP180;56792;50.644;17.984;2023-12-04T03:03:22;100270.40;;;-9.70
69590;BMP180;56792;50.644;17.984;2023-12-04T03:05:53;100266.40;;;-9.70
69590;BMP180;56792;50.644;17.984;2023-12-04T03:08:24;100266.00;;;-9.70
69590;BMP180;56792;50.644;17.984;2023-12-04T03:10:55;100270.00;;;-9.70
69590;BMP180;56792;50.644;17.984;2023-12-04T03:13:26;100270.00;;;-9.78
69590;BMP180;56792;50.644;17.984;2023-12-04T03:15:57;100272.00;;;-9.80
69590;BMP180;56792;50.644;17.984;2023-12-04T03:18:28;100278.60;;;-9.70
69590;BMP180;56792;50.644;17.984;2023-12-04T03:20:59;100280.60;;;-9.80
69590;BMP180;56792;50.644;17.984;2023-12-04T03:23:30;100277.00;;;-9.82
69590;BMP180;56792;50.644;17.984;2023-12-04T03:26:01;100278.80;;;-9.90
69590;BMP180;56792;50.644;17.984;2023-12-04T03:28:32;100281.40;;;-9.90
69590;BMP180;56792;50.644;17.984;2023-12-04T03:31:05;100287.40;;;-9.90
69590;BMP180;56792;50.644;17.984;2023-12-04T03:33:36;100291.00;;;-9.90
69590;BMP180;56792;50.644;17.984;2023-12-04T03:36:09;100296.00;;;-10.10
69590;BMP180;56792;50.644;17.984;2023-12-04T03:38:40;100291.60;;;-10.20
69590;BMP180;56792;50.644;17.984;2023-12-04T03:41:17;100298.60;;;-10.20
69590;BMP180;56792;50.644;17.984;2023-12-04T03:43:48;100304.80;;;-10.12
69590;BMP180;56792;50.644;17.984;2023-12-04T03:46:19;100309.20;;;-10.00
69590;BMP180;56792;50.644;17.984;2023-12-04T03:48:50;100307.00;;;-9.90
69590;BMP180;56792;50.644;17.984;2023-12-04T03:51:21;100307.40;;;-9.92
69590;BMP180;56792;50.644;17.984;2023-12-04T03:53:52;100307.00;;;-9.90
69590;BMP180;56792;50.644;17.984;2023-12-04T03:56:23;100311.20;;;-9.90
69590;BMP180;56792;50.644;17.984;2023-12-04T03:58:54;100304.20;;;-9.72
69590;BMP180;56792;50.644;17.984;2023-12-04T04:01:25;100306.00;;;-9.60
69590;BMP180;56792;50.644;17.984;2023-12-04T04:03:56;100311.40;;;-9.50
69590;BMP180;56792;50.644;17.984;2023-12-04T04:06:27;100314.20;;;-9.46
69590;BMP180;56792;50.644;17.984;2023-12-04T04:08:58;100307.40;;;-9.30
69590;BMP180;56792;50.644;17.984;2023-12-04T04:11:29;100307.60;;;-9.20
69590;BMP180;56792;50.644;17.984;2023-12-04T04:14:00;100304.20;;;-9.10
69590;BMP180;56792;50.644;17.984;2023-12-04T04:16:31;100307.80;;;-9.08
69590;BMP180;56792;50.644;17.984;2023-12-04T04:19:02;100306.40;;;-8.96
69590;BMP180;56792;50.644;17.984;2023-12-04T04:21:33;100304.60;;;-8.90
69590;BMP180;56792;50.644;17.984;2023-12-04T04:24:05;100309.00;;;-8.90
69590;BMP180;56792;50.644;17.984;2023-12-04T04:26:36;100298.20;;;-8.90
69590;BMP180;56792;50.644;17.984;2023-12-04T04:29:07;100297.60;;;-8.80
69590;BMP180;56792;50.644;17.984;2023-12-04T04:31:39;100290.40;;;-8.80
69590;BMP180;56792;50.644;17.984;2023-12-04T04:34:10;100284.20;;;-8.80
69590;BMP180;56792;50.644;17.984;2023-12-04T04:36:41;100275.20;;;-8.94
69590;BMP180;56792;50.644;17.984;2023-12-04T04:39:14;100269.80;;;-8.90
69590;BMP180;56792;50.644;17.984;2023-12-04T04:41:46;100276.80;;;-8.96
69590;BMP180;56792;50.644;17.984;2023-12-04T04:44:17;100270.80;;;-9.00
69590;BMP180;56792;50.644;17.984;2023-12-04T04:46:48;100277.20;;;-9.00
69590;BMP180;56792;50.644;17.984;2023-12-04T04:49:19;100275.00;;;-8.94
69590;BMP180;56792;50.644;17.984;2023-12-04T04:51:50;100279.00;;;-9.00
69590;BMP180;56792;50.644;17.984;2023-12-04T04:54:21;100276.60;;;-9.00
69590;BMP180;56792;50.644;17.984;2023-12-04T04:56:52;100270.80;;;-9.10
69590;BMP180;56792;50.644;17.984;2023-12-04T04:59:23;100277.00;;;-9.14
69590;BMP180;56792;50.644;17.984;2023-12-04T05:01:54;100278.40;;;-9.20
69590;BMP180;56792;50.644;17.984;2023-12-04T05:04:25;100271.80;;;-9.20
69590;BMP180;56792;50.644;17.984;2023-12-04T05:06:56;100268.20;;;-9.30
69590;BMP180;56792;50.644;17.984;2023-12-04T05:09:27;100264.60;;;-9.28
69590;BMP180;56792;50.644;17.984;2023-12-04T05:11:58;100264.80;;;-9.30
69590;BMP180;56792;50.644;17.984;2023-12-04T05:14:29;100262.20;;;-9.30
69590;BMP180;56792;50.644;17.984;2023-12-04T05:17:00;100260.20;;;-9.30
69590;BMP180;56792;50.644;17.984;2023-12-04T05:19:31;100255.60;;;-9.40
69590;BMP180;56792;50.644;17.984;2023-12-04T05:22:02;100258.00;;;-9.50
69590;BMP180;56792;50.644;17.984;2023-12-04T05:24:33;100250.40;;;-9.40
69590;BMP180;56792;50.644;17.984;2023-12-04T05:27:05;100251.60;;;-9.40
69590;BMP180;56792;50.644;17.984;2023-12-04T05:29:36;100264.80;;;-9.34
69590;BMP180;56792;50.644;17.984;2023-12-04T05:32:08;100263.00;;;-9.50
69590;BMP180;56792;50.644;17.984;2023-12-04T05:34:39;100261.80;;;-9.60
69590;BMP180;56792;50.644;17.984;2023-12-04T05:37:10;100265.00;;;-9.60
69590;BMP180;56792;50.644;17.984;2023-12-04T05:39:41;100266.40;;;-9.50
69590;BMP180;56792;50.644;17.984;2023-12-04T05:42:12;100266.40;;;-9.50
69590;BMP180;56792;50.644;17.984;2023-12-04T05:44:43;100271.20;;;-9.50
69590;BMP180;56792;50.644;17.984;2023-12-04T05:47:14;100260.40;;;-9.40
69590;BMP180;56792;50.644;17.984;2023-12-04T05:49:45;100257.00;;;-9.38
69590;BMP180;56792;50.644;17.984;2023-12-04T05:52:16;100249.60;;;-9.54
69590;BMP180;56792;50.644;17.984;2023-12-04T05:54:47;100259.40;;;-9.60
69590;BMP180;56792;50.644;17.984;2023-12-04T05:57:18;100263.20;;;-9.50
69590;BMP180;56792;50.644;17.984;2023-12-04T05:59:49;100259.60;;;-9.60
69590;BMP180;56792;50.644;17.984;2023-12-04T06:02:20;100256.00;;;-9.62
69590;BMP180;56792;50.644;17.984;2023-12-04T06:04:51;100241.80;;;-9.60
69590;BMP180;56792;50.644;17.984;2023-12-04T06:07:22;100244.40;;;-9.70
69590;BMP180;56792;50.644;17.984;2023-12-04T06:09:53;100241.80;;;-9.70
69590;BMP180;56792;50.644;17.984;2023-12-04T06:12:24;100241.00;;;-9.80
69590;BMP180;56792;50.644;17.984;2023-12-04T06:14:55;100232.40;;;-9.84
69590;BMP180;56792;50.644;17.984;2023-12-04T06:17:26;100230.60;;;-9.90
69590;BMP180;56792;50.644;17.984;2023-12-04T06:19:57;100236.00;;;-9.90
69590;BMP180;56792;50.644;17.984;2023-12-04T06:22:30;100236.20;;;-9.90
69590;BMP180;56792;50.644;17.984;2023-12-04T06:25:03;100231.40;;;-9.90
69590;BMP180;56792;50.644;17.984;2023-12-04T06:27:35;100231.20;;;-10.00
69590;BMP180;56792;50.644;17.984;2023-12-04T06:30:10;100234.00;;;-10.20
69590;BMP180;56792;50.644;17.984;2023-12-04T06:32:43;100234.20;;;-10.20
69590;BMP180;56792;50.644;17.984;2023-12-04T06:35:17;100232.00;;;-10.30
69590;BMP180;56792;50.644;17.984;2023-12-04T06:37:49;100227.60;;;-10.30
69590;BMP180;56792;50.644;17.984;2023-12-04T06:40:24;100226.20;;;-10.40
69590;BMP180;56792;50.644;17.984;2023-12-04T06:42:57;100220.40;;;-10.42
69590;BMP180;56792;50.644;17.984;2023-12-04T06:45:29;100222.40;;;-10.38
69590;BMP180;56792;50.644;17.984;2023-12-04T06:48:02;100228.80;;;-10.30
69590;BMP180;56792;50.644;17.984;2023-12-04T06:50:33;100233.20;;;-10.30
69590;BMP180;56792;50.644;17.984;2023-12-04T06:53:04;100230.20;;;-10.30
69590;BMP180;56792;50.644;17.984;2023-12-04T06:55:35;100233.40;;;-10.30
69590;BMP180;56792;50.644;17.984;2023-12-04T06:58:06;100231.20;;;-10.40
69590;BMP180;56792;50.644;17.984;2023-12-04T07:00:37;100239.00;;;-10.50
69590;BMP180;56792;50.644;17.984;2023-12-04T07:03:08;100243.20;;;-10.62
69590;BMP180;56792;50.644;17.984;2023-12-04T07:05:39;100235.20;;;-10.60
69590;BMP180;56792;50.644;17.984;2023-12-04T07:08:11;100240.60;;;-10.60
69590;BMP180;56792;50.644;17.984;2023-12-04T07:10:42;100244.40;;;-10.60
69590;BMP180;56792;50.644;17.984;2023-12-04T07:13:13;100245.00;;;-10.60
69590;BMP180;56792;50.644;17.984;2023-12-04T07:15:44;100242.60;;;-10.68
69590;BMP180;56792;50.644;17.984;2023-12-04T07:18:15;100231.40;;;-10.60
69590;BMP180;56792;50.644;17.984;2023-12-04T07:20:46;100234.20;;;-10.60
69590;BMP180;56792;50.644;17.984;2023-12-04T07:23:17;100233.60;;;-10.50
69590;BMP180;56792;50.644;17.984;2023-12-04T07:25:48;100235.80;;;-10.60
69590;BMP180;56792;50.644;17.984;2023-12-04T07:28:21;100231.00;;;-10.72
69590;BMP180;56792;50.644;17.984;2023-12-04T07:30:53;100231.80;;;-10.84
69590;BMP180;56792;50.644;17.984;2023-12-04T07:33:24;100230.80;;;-10.86
69590;BMP180;56792;50.644;17.984;2023-12-04T07:35:56;100239.00;;;-10.88
69590;BMP180;56792;50.644;17.984;2023-12-04T07:38:26;100232.40;;;-10.84
69590;BMP180;56792;50.644;17.984;2023-12-04T07:40:58;100231.60;;;-10.90
69590;BMP180;56792;50.644;17.984;2023-12-04T07:43:29;100236.20;;;-10.90
69590;BMP180;56792;50.644;17.984;2023-12-04T07:46:00;100236.40;;;-10.90
69590;BMP180;56792;50.644;17.984;2023-12-04T07:48:31;100237.80;;;-10.78
69590;BMP180;56792;50.644;17.984;2023-12-04T07:51:02;100243.00;;;-10.64
69590;BMP180;56792;50.644;17.984;2023-12-04T07:53:33;100238.60;;;-10.60
69590;BMP180;56792;50.644;17.984;2023-12-04T07:56:06;100237.60;;;-10.48
69590;BMP180;56792;50.644;17.984;2023-12-04T07:58:37;100237.40;;;-10.40
69590;BMP180;56792;50.644;17.984;2023-12-04T08:01:09;100239.20;;;-10.40
69590;BMP180;56792;50.644;17.984;2023-12-04T08:03:40;100242.80;;;-10.20
69590;BMP180;56792;50.644;17.984;2023-12-04T08:06:12;100241.20;;;-10.10
69590;BMP180;56792;50.644;17.984;2023-12-04T08:08:43;100239.60;;;-10.00
69590;BMP180;56792;50.644;17.984;2023-12-04T08:11:14;100232.80;;;-9.90
69590;BMP180;56792;50.644;17.984;2023-12-04T08:13:45;100232.00;;;-9.70
69590;BMP180;56792;50.644;17.984;2023-12-04T08:16:19;100224.20;;;-9.60
69590;BMP180;56792;50.644;17.984;2023-12-04T08:18:50;100223.00;;;-9.50
69590;BMP180;56792;50.644;17.984;2023-12-04T08:21:21;100221.40;;;-9.30
69590;BMP180;56792;50.644;17.984;2023-12-04T08:23:52;100221.00;;;-9.20
69590;BMP180;56792;50.644;17.984;2023-12-04T08:26:26;100220.40;;;-9.06
69590;BMP180;56792;50.644;17.984;2023-12-04T08:28:57;100224.00;;;-8.90
69590;BMP180;56792;50.644;17.984;2023-12-04T08:31:28;100220.00;;;-8.70
69590;BMP180;56792;50.644;17.984;2023-12-04T08:34:00;100220.60;;;-8.50
69590;BMP180;56792;50.644;17.984;2023-12-04T08:36:31;100221.80;;;-8.30
69590;BMP180;56792;50.644;17.984;2023-12-04T08:39:02;100221.40;;;-8.20
69590;BMP180;56792;50.644;17.984;2023-12-04T08:41:33;100223.20;;;-8.00
69590;BMP180;56792;50.644;17.984;2023-12-04T08:44:05;100226.20;;;-7.94
69590;BMP180;56792;50.644;17.984;2023-12-04T08:46:36;100216.20;;;-7.80
69590;BMP180;56792;50.644;17.984;2023-12-04T08:49:07;100224.60;;;-7.60
69590;BMP180;56792;50.644;17.984;2023-12-04T08:51:38;100221.40;;;-7.40
69590;BMP180;56792;50.644;17.984;2023-12-04T08:54:09;100224.20;;;-7.20
69590;BMP180;56792;50.644;17.984;2023-12-04T08:56:40;100222.00;;;-7.00
69590;BMP180;56792;50.644;17.984;2023-12-04T08:59:11;100218.80;;;-6.90
69590;BMP180;56792;50.644;17.984;2023-12-04T09:01:43;100219.60;;;-6.80
69590;BMP180;56792;50.644;17.984;2023-12-04T09:04:14;100217.40;;;-6.70
69590;BMP180;56792;50.644;17.984;2023-12-04T09:06:45;100211.40;;;-6.60
69590;BMP180;56792;50.644;17.984;2023-12-04T09:09:16;100219.40;;;-6.50
69590;BMP180;56792;50.644;17.984;2023-12-04T09:11:47;100217.60;;;-6.40
69590;BMP180;56792;50.644;17.984;2023-12-04T09:14:18;100217.20;;;-6.20
69590;BMP180;56792;50.644;17.984;2023-12-04T09:16:49;100215.00;;;-6.00
69590;BMP180;56792;50.644;17.984;2023-12-04T09:19:20;100216.20;;;-5.78
69590;BMP180;56792;50.644;17.984;2023-12-04T09:21:51;100215.60;;;-5.52
69590;BMP180;56792;50.644;17.984;2023-12-04T09:24:22;100213.40;;;-5.40
69590;BMP180;56792;50.644;17.984;2023-12-04T09:26:54;100208.80;;;-5.20
69590;BMP180;56792;50.644;17.984;2023-12-04T09:29:25;100208.20;;;-5.00
69590;BMP180;56792;50.644;17.984;2023-12-04T09:31:56;100195.40;;;-4.80
69590;BMP180;56792;50.644;17.984;2023-12-04T09:34:27;100197.60;;;-4.60
69590;BMP180;56792;50.644;17.984;2023-12-04T09:36:58;100194.80;;;-4.40
69590;BMP180;56792;50.644;17.984;2023-12-04T09:39:29;100189.60;;;-4.40
69590;BMP180;56792;50.644;17.984;2023-12-04T09:42:02;100192.20;;;-4.20
69590;BMP180;56792;50.644;17.984;2023-12-04T09:44:33;100187.20;;;-4.00
69590;BMP180;56792;50.644;17.984;2023-12-04T09:47:06;100181.60;;;-3.80
69590;BMP180;56792;50.644;17.984;2023-12-04T09:49:38;100179.20;;;-3.46
69590;BMP180;56792;50.644;17.984;2023-12-04T09:52:09;100170.00;;;-3.30
69590;BMP180;56792;50.644;17.984;2023-12-04T09:54:42;100170.20;;;-3.10
69590;BMP180;56792;50.644;17.984;2023-12-04T09:57:14;100166.20;;;-3.00
69590;BMP180;56792;50.644;17.984;2023-12-04T09:59:48;100168.40;;;-2.70
69590;BMP180;56792;50.644;17.984;2023-12-04T10:02:19;100159.00;;;-2.48
69590;BMP180;56792;50.644;17.984;2023-12-04T10:04:51;100156.60;;;-2.30
69590;BMP180;56792;50.644;17.984;2023-12-04T10:07:22;100157.00;;;-2.30
69590;BMP180;56792;50.644;17.984;2023-12-04T10:09:53;100147.60;;;-2.16
69590;BMP180;56792;50.644;17.984;2023-12-04T10:12:24;100144.00;;;-1.82
69590;BMP180;56792;50.644;17.984;2023-12-04T10:15:09;100140.00;;;-1.60
69590;BMP180;56792;50.644;17.984;2023-12-04T10:17:43;100134.40;;;-1.40
69590;BMP180;56792;50.644;17.984;2023-12-04T10:20:16;100125.80;;;-1.30
69590;BMP180;56792;50.644;17.984;2023-12-04T10:22:58;100116.00;;;-1.10
69590;BMP180;56792;50.644;17.984;2023-12-04T10:25:30;100116.00;;;-1.10
69590;BMP180;56792;50.644;17.984;2023-12-04T10:28:11;100118.00;;;-1.10
69590;BMP180;56792;50.644;17.984;2023-12-04T10:30:43;100112.40;;;-1.00
69590;BMP180;56792;50.644;17.984;2023-12-04T10:33:15;100107.20;;;-0.90
69590;BMP180;56792;50.644;17.984;2023-12-04T10:35:47;100104.80;;;-0.78
69590;BMP180;56792;50.644;17.984;2023-12-04T10:38:19;100103.00;;;-0.74
69590;BMP180;56792;50.644;17.984;2023-12-04T10:40:50;100101.20;;;-0.50
69590;BMP180;56792;50.644;17.984;2023-12-04T10:43:22;100100.80;;;-0.34
69590;BMP180;56792;50.644;17.984;2023-12-04T10:45:54;100091.60;;;-0.18
69590;BMP180;56792;50.644;17.984;2023-12-04T10:48:26;100091.80;;;-0.10
69590;BMP180;56792;50.644;17.984;2023-12-04T10:50:57;100093.00;;;0.04
69590;BMP180;56792;50.644;17.984;2023-12-04T10:53:29;100092.60;;;-0.30
69590;BMP180;56792;50.644;17.984;2023-12-04T10:56:03;100089.40;;;-0.12
69590;BMP180;56792;50.644;17.984;2023-12-04T10:58:37;100083.80;;;0.04
69590;BMP180;56792;50.644;17.984;2023-12-04T11:01:12;100082.80;;;0.10
69590;BMP180;56792;50.644;17.984;2023-12-04T11:03:49;100075.00;;;0.20
69590;BMP180;56792;50.644;17.984;2023-12-04T11:06:25;100070.60;;;0.44
69590;BMP180;56792;50.644;17.984;2023-12-04T11:08:59;100071.20;;;0.40
69590;BMP180;56792;50.644;17.984;2023-12-04T11:11:36;100066.00;;;0.28
69590;BMP180;56792;50.644;17.984;2023-12-04T11:14:12;100059.20;;;0.20
69590;BMP180;56792;50.644;17.984;2023-12-04T11:16:51;100054.20;;;0.26
69590;BMP180;56792;50.644;17.984;2023-12-04T11:19:32;100051.40;;;0.40
69590;BMP180;56792;50.644;17.984;2023-12-04T11:22:08;100052.00;;;0.30
69590;BMP180;56792;50.644;17.984;2023-12-04T11:24:40;100048.40;;;0.18
69590;BMP180;56792;50.644;17.984;2023-12-04T11:27:12;100048.80;;;0.00
69590;BMP180;56792;50.644;17.984;2023-12-04T11:29:44;100046.60;;;-0.02
69590;BMP180;56792;50.644;17.984;2023-12-04T11:32:17;100042.00;;;-0.20
69590;BMP180;56792;50.644;17.984;2023-12-04T11:34:56;100042.00;;;-0.20
69590;BMP180;56792;50.644;17.984;2023-12-04T11:37:32;100031.80;;;-0.20
69590;BMP180;56792;50.644;17.984;2023-12-04T11:40:07;100031.00;;;0.04
69590;BMP180;56792;50.644;17.984;2023-12-04T11:42:39;100029.80;;;0.30
69590;BMP180;56792;50.644;17.984;2023-12-04T11:45:12;100032.40;;;0.30
69590;BMP180;56792;50.644;17.984;2023-12-04T11:47:57;100034.00;;;-0.10
69590;BMP180;56792;50.644;17.984;2023-12-04T11:50:29;100028.00;;;-0.20
69590;BMP180;56792;50.644;17.984;2023-12-04T11:53:03;100021.00;;;0.00
69590;BMP180;56792;50.644;17.984;2023-12-04T11:55:40;100021.00;;;0.00
69590;BMP180;56792;50.644;17.984;2023-12-04T11:58:13;100018.00;;;-0.10
69590;BMP180;56792;50.644;17.984;2023-12-04T12:00:47;100015.00;;;-0.14
69590;BMP180;56792;50.644;17.984;2023-12-04T12:03:18;100006.00;;;-0.28
69590;BMP180;56792;50.644;17.984;2023-12-04T12:05:51;100007.20;;;-0.70
69590;BMP180;56792;50.644;17.984;2023-12-04T12:08:25;100002.60;;;-0.74
69590;BMP180;56792;50.644;17.984;2023-12-04T12:10:59;100001.60;;;-0.70
69590;BMP180;56792;50.644;17.984;2023-12-04T12:13:30;99998.20;;;-0.96
69590;BMP180;56792;50.644;17.984;2023-12-04T12:16:01;99996.20;;;-1.00
69590;BMP180;56792;50.644;17.984;2023-12-04T12:18:35;99991.00;;;-1.20
69590;BMP180;56792;50.644;17.984;2023-12-04T12:21:08;99986.40;;;-1.24
69590;BMP180;56792;50.644;17.984;2023-12-04T12:23:39;99977.40;;;-1.30
69590;BMP180;56792;50.644;17.984;2023-12-04T12:26:10;99974.20;;;-1.48
69590;BMP180;56792;50.644;17.984;2023-12-04T12:28:42;99973.40;;;-1.66
69590;BMP180;56792;50.644;17.984;2023-12-04T12:31:13;99972.80;;;-1.80
69590;BMP180;56792;50.644;17.984;2023-12-04T12:33:43;99963.40;;;-1.90
69590;BMP180;56792;50.644;17.984;2023-12-04T12:36:15;99966.40;;;-1.78
69590;BMP180;56792;50.644;17.984;2023-12-04T12:38:48;99959.80;;;-1.80
69590;BMP180;56792;50.644;17.984;2023-12-04T12:41:20;99959.40;;;-1.88
69590;BMP180;56792;50.644;17.984;2023-12-04T12:43:54;99951.40;;;-2.00
69590;BMP180;56792;50.644;17.984;2023-12-04T12:46:25;99949.40;;;-2.00
69590;BMP180;56792;50.644;17.984;2023-12-04T12:48:57;99944.60;;;-1.98
69590;BMP180;56792;50.644;17.984;2023-12-04T12:51:29;99939.80;;;-1.90
69590;BMP180;56792;50.644;17.984;2023-12-04T12:54:01;99935.40;;;-2.00
69590;BMP180;56792;50.644;17.984;2023-12-04T12:56:32;99930.40;;;-1.96
69590;BMP180;56792;50.644;17.984;2023-12-04T12:59:03;99927.20;;;-1.90
69590;BMP180;56792;50.644;17.984;2023-12-04T13:01:35;99920.40;;;-1.80
69590;BMP180;56792;50.644;17.984;2023-12-04T13:04:07;99920.60;;;-1.70
69590;BMP180;56792;50.644;17.984;2023-12-04T13:06:40;99915.80;;;-1.66
69590;BMP180;56792;50.644;17.984;2023-12-04T13:09:11;99911.60;;;-1.60
69590;BMP180;56792;50.644;17.984;2023-12-04T13:11:47;99912.40;;;-1.50
69590;BMP180;56792;50.644;17.984;2023-12-04T13:14:19;99906.20;;;-1.60
69590;BMP180;56792;50.644;17.984;2023-12-04T13:16:50;99898.20;;;-1.60
69590;BMP180;56792;50.644;17.984;2023-12-04T13:19:20;99901.80;;;-1.60
69590;BMP180;56792;50.644;17.984;2023-12-04T13:21:52;99897.80;;;-1.58
69590;BMP180;56792;50.644;17.984;2023-12-04T13:24:23;99900.80;;;-1.54
69590;BMP180;56792;50.644;17.984;2023-12-04T13:26:54;99898.40;;;-1.70
69590;BMP180;56792;50.644;17.984;2023-12-04T13:29:25;99898.40;;;-1.70
69590;BMP180;56792;50.644;17.984;2023-12-04T13:31:56;99889.60;;;-1.80
69590;BMP180;56792;50.644;17.984;2023-12-04T13:34:27;99887.40;;;-1.80
69590;BMP180;56792;50.644;17.984;2023-12-04T13:36:58;99885.40;;;-1.90
69590;BMP180;56792;50.644;17.984;2023-12-04T13:39:29;99880.40;;;-1.90
69590;BMP180;56792;50.644;17.984;2023-12-04T13:42:17;99879.40;;;-2.00
69590;BMP180;56792;50.644;17.984;2023-12-04T13:45:07;99876.60;;;-2.00
69590;BMP180;56792;50.644;17.984;2023-12-04T13:47:39;99870.00;;;-2.00
69590;BMP180;56792;50.644;17.984;2023-12-04T13:50:12;99869.40;;;-2.10
69590;BMP180;56792;50.644;17.984;2023-12-04T13:52:43;99862.60;;;-2.10
69590;BMP180;56792;50.644;17.984;2023-12-04T13:55:14;99859.00;;;-2.10
69590;BMP180;56792;50.644;17.984;2023-12-04T13:57:49;99855.40;;;-2.10
69590;BMP180;56792;50.644;17.984;2023-12-04T14:00:42;99850.60;;;-2.10
69590;BMP180;56792;50.644;17.984;2023-12-04T14:03:13;99849.40;;;-2.10
69590;BMP180;56792;50.644;17.984;2023-12-04T14:05:44;99843.40;;;-2.10
69590;BMP180;56792;50.644;17.984;2023-12-04T14:08:15;99838.80;;;-2.16
69590;BMP180;56792;50.644;17.984;2023-12-04T14:10:47;99838.40;;;-2.10